createdAt,value
2022-12-04T00:01:06.328Z,2.96
2022-12-04T00:03:33.137Z,2.84
2022-12-04T00:06:08.707Z,2.94
2022-12-04T00:08:35.765Z,3.07
2022-12-04T00:11:04.807Z,3.25
2022-12-04T00:13:32.364Z,2.97
2022-12-04T00:15:59.453Z,2.93
2022-12-04T00:18:26.534Z,3.39
2022-12-04T00:20:53.530Z,3.16
2022-12-04T00:23:20.089Z,3.01
2022-12-04T00:25:48.834Z,3.13
2022-12-04T00:28:17.041Z,3.27
2022-12-04T00:30:45.259Z,3.07
2022-12-04T00:33:14.901Z,3.06
2022-12-04T00:35:41.673Z,2.92
2022-12-04T00:38:08.238Z,3.09
2022-12-04T00:40:34.833Z,3.02
2022-12-04T00:43:01.576Z,3.01
2022-12-04T00:45:28.195Z,2.98
2022-12-04T00:47:54.887Z,3.03
2022-12-04T00:50:21.729Z,3.30
2022-12-04T00:52:48.308Z,3.10
2022-12-04T00:55:14.899Z,2.93
2022-12-04T00:57:41.854Z,3.10
2022-12-04T01:00:08.796Z,2.97
2022-12-04T01:02:35.406Z,2.92
2022-12-04T01:05:02.204Z,2.77
2022-12-04T01:07:28.798Z,2.75
2022-12-04T01:09:55.658Z,2.90
2022-12-04T01:12:22.436Z,2.91
2022-12-04T01:14:49.067Z,3.10
2022-12-04T01:17:15.669Z,2.97
2022-12-04T01:19:42.696Z,2.96
2022-12-04T01:22:09.183Z,3.01
2022-12-04T01:24:35.690Z,2.97
2022-12-04T01:27:02.395Z,2.81
2022-12-04T01:29:28.890Z,2.88
2022-12-04T01:31:55.430Z,2.86
2022-12-04T01:34:22.220Z,2.84
2022-12-04T01:36:48.749Z,2.86
2022-12-04T01:39:15.311Z,2.98
2022-12-04T01:41:42.052Z,2.95
2022-12-04T01:44:15.344Z,2.91
2022-12-04T01:46:47.405Z,2.93
2022-12-04T01:49:22.439Z,2.94
2022-12-04T01:51:56.446Z,2.84
2022-12-04T01:54:28.688Z,2.89
2022-12-04T01:57:03.424Z,2.86
2022-12-04T01:59:35.934Z,2.98
2022-12-04T02:02:14.793Z,2.94
2022-12-04T02:04:43.528Z,2.84
2022-12-04T02:07:11.776Z,3.03
2022-12-04T02:09:40.070Z,2.86
2022-12-04T02:12:20.486Z,2.89
2022-12-04T02:15:11.597Z,2.78
2022-12-04T02:17:59.739Z,2.75
2022-12-04T02:20:55.821Z,2.94
2022-12-04T02:24:00.877Z,3.12
2022-12-04T02:26:39.617Z,3.28
2022-12-04T02:29:38.255Z,3.24
2022-12-04T02:32:25.333Z,3.03
2022-12-04T02:35:02.101Z,2.92
2022-12-04T02:37:36.728Z,3.00
2022-12-04T02:40:39.629Z,3.01
2022-12-04T02:43:20.911Z,3.03
2022-12-04T02:45:55.062Z,2.98
2022-12-04T02:48:24.516Z,2.91
2022-12-04T02:50:54.072Z,2.96
2022-12-04T02:53:27.053Z,3.03
2022-12-04T02:56:16.231Z,2.99
2022-12-04T02:58:49.551Z,2.97
2022-12-04T03:01:20.920Z,2.72
2022-12-04T03:03:57.885Z,2.95
2022-12-04T03:06:27.799Z,3.02
2022-12-04T03:09:20.620Z,2.93
2022-12-04T03:11:56.738Z,2.81
2022-12-04T03:14:35.659Z,2.98
2022-12-04T03:17:08.243Z,2.96
2022-12-04T03:19:44.165Z,2.95
2022-12-04T03:22:17.370Z,3.01
2022-12-04T03:24:50.190Z,2.96
2022-12-04T03:27:46.451Z,2.91
2022-12-04T03:30:16.907Z,3.03
2022-12-04T03:32:46.433Z,2.97
2022-12-04T03:35:20.222Z,2.95
2022-12-04T03:37:52.839Z,2.78
2022-12-04T03:40:34.472Z,2.82
2022-12-04T03:43:07.663Z,3.07
2022-12-04T03:45:48.697Z,2.88
2022-12-04T03:48:19.616Z,3.10
2022-12-04T03:51:00.080Z,3.01
2022-12-04T03:53:38.514Z,3.05
2022-12-04T03:56:12.376Z,3.26
2022-12-04T03:58:45.377Z,3.36
2022-12-04T04:01:14.169Z,3.24
2022-12-04T04:03:47.879Z,3.15
2022-12-04T04:06:20.783Z,2.98
2022-12-04T04:08:52.495Z,3.04
2022-12-04T04:11:57.659Z,3.01
2022-12-04T04:14:49.779Z,2.94
2022-12-04T04:17:38.984Z,2.92
2022-12-04T04:20:32.741Z,3.06
2022-12-04T04:23:20.304Z,3.15
2022-12-04T04:25:47.471Z,3.11
2022-12-04T04:28:37.809Z,3.21
2022-12-04T04:31:39.492Z,3.15
2022-12-04T04:34:33.867Z,2.96
2022-12-04T04:37:03.319Z,2.87
2022-12-04T04:39:42.465Z,2.86
2022-12-04T04:42:20.090Z,2.92
2022-12-04T04:44:57.695Z,2.99
2022-12-04T04:47:44.857Z,2.99
2022-12-04T04:50:13.973Z,2.99
2022-12-04T04:52:46.335Z,2.85
2022-12-04T04:55:14.882Z,2.98
2022-12-04T04:57:41.464Z,2.98
2022-12-04T05:00:12.154Z,2.95
2022-12-04T05:02:38.903Z,2.86
2022-12-04T05:05:06.105Z,2.97
2022-12-04T05:07:32.703Z,2.93
2022-12-04T05:09:59.600Z,2.99
2022-12-04T05:12:26.251Z,2.94
2022-12-04T05:14:52.778Z,2.99
2022-12-04T05:17:19.383Z,2.95
2022-12-04T05:19:55.692Z,2.99
2022-12-04T05:22:35.638Z,3.10
2022-12-04T05:25:03.605Z,2.86
2022-12-04T05:27:31.125Z,3.06
2022-12-04T05:29:59.236Z,2.99
2022-12-04T05:32:27.876Z,2.91
2022-12-04T05:34:56.225Z,3.05
2022-12-04T05:37:23.068Z,2.95
2022-12-04T05:39:49.669Z,3.06
2022-12-04T05:42:16.465Z,3.08
2022-12-04T05:44:43.349Z,3.13
2022-12-04T05:47:10.197Z,3.22
2022-12-04T05:49:36.800Z,3.04
2022-12-04T05:52:05.802Z,2.94
2022-12-04T05:54:32.344Z,2.73
2022-12-04T05:56:59.136Z,2.81
2022-12-04T05:59:25.725Z,3.12
2022-12-04T06:01:52.405Z,3.11
2022-12-04T06:04:19.029Z,3.14
2022-12-04T06:06:45.598Z,3.13
2022-12-04T06:09:12.215Z,3.12
2022-12-04T06:11:41.123Z,3.11
2022-12-04T06:14:10.769Z,3.23
2022-12-04T06:16:40.315Z,3.28
2022-12-04T06:19:10.043Z,3.36
2022-12-04T06:21:40.118Z,3.36
2022-12-04T06:24:08.024Z,3.27
2022-12-04T06:26:34.563Z,3.31
2022-12-04T06:29:01.332Z,3.35
2022-12-04T06:31:29.916Z,3.28
2022-12-04T06:33:58.751Z,3.22
2022-12-04T06:36:25.976Z,3.19
2022-12-04T06:38:54.958Z,3.33
2022-12-04T06:41:22.336Z,3.32
2022-12-04T06:43:50.742Z,3.50
2022-12-04T06:46:25.457Z,3.50
2022-12-04T06:48:52.448Z,3.41
2022-12-04T06:51:24.493Z,3.33
2022-12-04T06:53:52.473Z,3.37
2022-12-04T06:56:22.474Z,3.32
2022-12-04T06:58:51.018Z,3.29
2022-12-04T07:01:19.812Z,3.36
2022-12-04T07:03:51.346Z,3.48
2022-12-04T07:06:21.523Z,3.44
2022-12-04T07:08:51.681Z,3.30
2022-12-04T07:11:19.362Z,3.46
2022-12-04T07:13:45.884Z,3.35
2022-12-04T07:16:14.342Z,3.35
2022-12-04T07:18:41.444Z,3.33
2022-12-04T07:21:10.567Z,3.34
2022-12-04T07:23:37.286Z,3.34
2022-12-04T07:26:09.028Z,3.23
2022-12-04T07:28:36.810Z,3.48
2022-12-04T07:31:08.389Z,3.48
2022-12-04T07:33:35.253Z,3.41
2022-12-04T07:36:04.360Z,3.63
2022-12-04T07:38:31.817Z,3.46
2022-12-04T07:41:03.156Z,3.37
2022-12-04T07:43:30.895Z,3.63
2022-12-04T07:45:58.225Z,3.51
2022-12-04T07:48:30.242Z,3.41
2022-12-04T07:51:11.386Z,3.57
2022-12-04T07:53:38.915Z,3.55
2022-12-04T07:56:06.803Z,3.44
2022-12-04T07:58:34.154Z,3.37
2022-12-04T08:01:09.843Z,3.35
2022-12-04T08:03:38.933Z,3.71
2022-12-04T08:06:09.017Z,3.72
2022-12-04T08:08:36.414Z,3.53
2022-12-04T08:11:08.647Z,3.56
2022-12-04T08:13:35.705Z,3.56
2022-12-04T08:16:03.931Z,3.75
2022-12-04T08:18:30.872Z,3.83
2022-12-04T08:21:10.346Z,3.64
2022-12-04T08:23:38.415Z,3.54
2022-12-04T08:26:05.824Z,3.56
2022-12-04T08:28:32.638Z,3.54
2022-12-04T08:31:20.820Z,3.50
2022-12-04T08:33:49.377Z,3.59
2022-12-04T08:36:19.707Z,3.74
2022-12-04T08:38:47.342Z,3.59
2022-12-04T08:41:16.126Z,3.73
2022-12-04T08:43:43.103Z,3.59
2022-12-04T08:46:13.060Z,3.63
2022-12-04T08:48:39.725Z,3.74
2022-12-04T08:51:10.337Z,3.76
2022-12-04T08:53:37.133Z,3.88
2022-12-04T08:56:04.811Z,3.92
2022-12-04T08:58:31.782Z,3.79
2022-12-04T09:01:07.903Z,3.85
2022-12-04T09:03:35.197Z,3.70
2022-12-04T09:06:04.518Z,3.79
2022-12-04T09:08:32.553Z,3.96
2022-12-04T09:11:07.005Z,3.91
2022-12-04T09:13:34.136Z,3.91
2022-12-04T09:16:05.433Z,3.61
2022-12-04T09:18:32.211Z,3.61
2022-12-04T09:21:01.109Z,3.57
2022-12-04T09:23:28.882Z,3.65
2022-12-04T09:25:55.407Z,3.73
2022-12-04T09:28:22.094Z,3.79
2022-12-04T09:31:03.232Z,3.97
2022-12-04T09:33:30.901Z,4.00
2022-12-04T09:36:01.752Z,4.10
2022-12-04T09:38:29.916Z,4.15
2022-12-04T09:41:05.594Z,4.01
2022-12-04T09:43:36.572Z,3.98
2022-12-04T09:46:12.374Z,3.72
2022-12-04T09:48:43.210Z,3.73
2022-12-04T09:51:18.826Z,3.69
2022-12-04T09:53:51.405Z,3.78
2022-12-04T09:56:20.042Z,3.74
2022-12-04T09:58:49.389Z,3.85
2022-12-04T10:01:34.395Z,3.75
2022-12-04T10:04:05.913Z,3.91
2022-12-04T10:06:58.433Z,3.93
2022-12-04T10:09:42.364Z,4.04
2022-12-04T10:12:38.424Z,4.08
2022-12-04T10:15:23.127Z,3.92
2022-12-04T10:18:08.255Z,4.19
2022-12-04T10:20:46.867Z,4.03
2022-12-04T10:23:44.468Z,4.11
2022-12-04T10:26:17.569Z,4.34
2022-12-04T10:28:55.064Z,3.97
2022-12-04T10:31:22.284Z,4.05
2022-12-04T10:33:54.567Z,4.11
2022-12-04T10:36:28.154Z,3.88
2022-12-04T10:39:14.428Z,4.42
2022-12-04T10:41:50.188Z,4.22
2022-12-04T10:44:19.440Z,4.61
2022-12-04T10:46:47.072Z,4.73
2022-12-04T10:49:36.877Z,4.48
2022-12-04T10:52:04.868Z,4.17
2022-12-04T10:54:35.736Z,4.00
2022-12-04T10:57:10.373Z,4.19
2022-12-04T10:59:49.400Z,4.24
2022-12-04T11:02:20.571Z,3.94
2022-12-04T11:04:57.428Z,4.08
2022-12-04T11:07:30.255Z,4.27
2022-12-04T11:10:04.727Z,4.53
2022-12-04T11:12:32.541Z,4.25
2022-12-04T11:15:07.838Z,4.15
2022-12-04T11:17:34.694Z,4.03
2022-12-04T11:20:07.393Z,4.26
2022-12-04T11:22:48.000Z,4.47
2022-12-04T11:25:18.838Z,4.03
2022-12-04T11:27:51.902Z,4.09
2022-12-04T11:30:28.973Z,4.60
2022-12-04T11:32:56.550Z,4.89
2022-12-04T11:35:25.911Z,4.51
2022-12-04T11:37:58.989Z,4.46
2022-12-04T11:40:26.831Z,4.74
2022-12-04T11:43:20.472Z,5.01
2022-12-04T11:46:20.283Z,4.81
2022-12-04T11:48:47.007Z,4.74
2022-12-04T11:51:32.337Z,4.78
2022-12-04T11:54:08.119Z,4.67
2022-12-04T11:56:39.886Z,4.84
2022-12-04T11:59:09.568Z,4.88
2022-12-04T12:01:51.976Z,4.99
2022-12-04T12:04:43.181Z,4.95
2022-12-04T12:07:39.345Z,4.72
2022-12-04T12:10:06.135Z,4.75
2022-12-04T12:13:02.252Z,4.94
2022-12-04T12:15:56.467Z,4.91
2022-12-04T12:18:42.548Z,5.06
2022-12-04T12:21:21.119Z,5.32
2022-12-04T12:24:14.069Z,5.06
2022-12-04T12:27:06.944Z,5.11
2022-12-04T12:29:51.595Z,5.55
2022-12-04T12:32:39.392Z,5.41
2022-12-04T12:35:19.905Z,5.47
2022-12-04T12:37:52.781Z,5.49
2022-12-04T12:40:43.246Z,5.65
2022-12-04T12:43:09.905Z,6.20
2022-12-04T12:45:36.349Z,6.01
2022-12-04T12:48:35.084Z,6.15
2022-12-04T12:51:29.089Z,6.33
2022-12-04T12:54:03.928Z,6.14
2022-12-04T12:56:46.161Z,5.95
2022-12-04T12:59:21.058Z,5.67
2022-12-04T13:02:00.197Z,5.93
2022-12-04T13:04:53.088Z,6.12
2022-12-04T13:07:47.513Z,6.14
2022-12-04T13:10:25.692Z,6.00
2022-12-04T13:12:59.895Z,5.93
2022-12-04T13:15:44.834Z,5.89
2022-12-04T13:18:30.441Z,5.81
2022-12-04T13:21:01.755Z,5.44
2022-12-04T13:23:54.783Z,5.30
2022-12-04T13:26:47.793Z,5.14
2022-12-04T13:29:37.869Z,5.32
2022-12-04T13:32:32.185Z,5.03
2022-12-04T13:35:14.417Z,5.02
2022-12-04T13:38:29.162Z,5.06
2022-12-04T13:41:00.102Z,5.14
2022-12-04T13:43:36.819Z,4.96
2022-12-04T13:46:07.655Z,4.99
2022-12-04T13:48:39.900Z,5.30
2022-12-04T13:51:25.904Z,5.21
2022-12-04T13:54:20.345Z,5.10
2022-12-04T13:56:52.915Z,5.09
2022-12-04T13:59:28.484Z,5.46
2022-12-04T14:02:08.218Z,5.55
2022-12-04T14:04:47.328Z,5.34
2022-12-04T14:07:29.226Z,5.20
2022-12-04T14:09:58.825Z,5.56
2022-12-04T14:12:33.694Z,5.30
2022-12-04T14:15:08.146Z,5.12
2022-12-04T14:17:36.772Z,5.09
2022-12-04T14:20:08.485Z,5.00
2022-12-04T14:22:38.098Z,4.90
2022-12-04T14:25:23.319Z,4.90
2022-12-04T14:27:52.470Z,5.16
2022-12-04T14:30:20.614Z,5.08
2022-12-04T14:32:50.254Z,5.22
2022-12-04T14:35:23.769Z,4.86
2022-12-04T14:37:55.597Z,4.88
2022-12-04T14:40:34.526Z,5.21
2022-12-04T14:43:01.263Z,5.07
2022-12-04T14:45:45.354Z,5.13
2022-12-04T14:48:42.006Z,5.13
2022-12-04T14:51:11.646Z,4.86
2022-12-04T14:53:43.979Z,4.82
2022-12-04T14:56:22.636Z,4.50
2022-12-04T14:58:49.655Z,4.75
2022-12-04T15:01:28.999Z,4.85
2022-12-04T15:03:59.465Z,4.71
2022-12-04T15:06:31.593Z,5.13
2022-12-04T15:09:22.960Z,5.52
2022-12-04T15:12:10.413Z,5.08
2022-12-04T15:14:48.216Z,5.00
2022-12-04T15:17:17.827Z,4.76
2022-12-04T15:19:45.809Z,4.69
2022-12-04T15:22:21.253Z,4.59
2022-12-04T15:24:47.792Z,4.51
2022-12-04T15:27:17.192Z,4.86
2022-12-04T15:29:48.406Z,4.80
2022-12-04T15:32:18.369Z,4.54
2022-12-04T15:34:53.092Z,4.40
2022-12-04T15:37:31.439Z,4.00
2022-12-04T15:39:59.311Z,4.37
2022-12-04T15:42:30.315Z,4.27
2022-12-04T15:45:01.588Z,4.15
2022-12-04T15:47:37.102Z,4.25
2022-12-04T15:50:15.977Z,4.08
2022-12-04T15:52:52.653Z,4.17
2022-12-04T15:55:21.563Z,4.22
2022-12-04T15:57:55.754Z,4.64
2022-12-04T16:00:38.536Z,4.25
2022-12-04T16:03:43.700Z,4.12
2022-12-04T16:06:28.759Z,4.12
2022-12-04T16:08:58.266Z,4.24
2022-12-04T16:11:29.462Z,4.42
2022-12-04T16:14:09.365Z,4.25
2022-12-04T16:16:38.649Z,4.27
2022-12-04T16:19:12.582Z,3.91
2022-12-04T16:21:39.178Z,4.24
2022-12-04T16:24:06.843Z,4.21
2022-12-04T16:26:34.041Z,4.54
2022-12-04T16:29:00.642Z,4.78
2022-12-04T16:31:27.429Z,4.70
2022-12-04T16:33:54.030Z,4.40
2022-12-04T16:36:20.783Z,4.48
2022-12-04T16:38:47.356Z,4.61
2022-12-04T16:41:15.734Z,4.47
2022-12-04T16:43:42.772Z,4.30
2022-12-04T16:46:15.657Z,4.29
2022-12-04T16:48:43.455Z,4.26
2022-12-04T16:51:24.352Z,4.17
2022-12-04T16:53:52.109Z,3.96
2022-12-04T16:56:19.766Z,4.00
2022-12-04T16:58:46.450Z,4.73
2022-12-04T17:01:25.298Z,4.87
2022-12-04T17:03:52.629Z,4.96
2022-12-04T17:06:19.579Z,4.72
2022-12-04T17:08:46.333Z,4.78
2022-12-04T17:11:14.787Z,4.55
2022-12-04T17:13:41.646Z,4.16
2022-12-04T17:16:09.093Z,4.07
2022-12-04T17:18:35.675Z,4.14
2022-12-04T17:21:10.929Z,4.10
2022-12-04T17:23:37.655Z,4.14
2022-12-04T17:26:06.540Z,4.15
2022-12-04T17:28:33.757Z,4.25
2022-12-04T17:31:02.529Z,4.52
2022-12-04T17:33:29.141Z,4.15
2022-12-04T17:35:56.199Z,4.31
2022-12-04T17:38:22.789Z,4.40
2022-12-04T17:41:00.980Z,4.41
2022-12-04T17:43:31.831Z,4.13
2022-12-04T17:45:58.807Z,4.30
2022-12-04T17:48:26.341Z,4.23
2022-12-04T17:51:19.757Z,4.09
2022-12-04T17:53:47.319Z,4.09
2022-12-04T17:56:17.408Z,4.03
2022-12-04T17:58:45.015Z,4.35
2022-12-04T18:01:23.059Z,4.55
2022-12-04T18:03:51.794Z,4.66
2022-12-04T18:06:26.926Z,4.55
2022-12-04T18:08:54.129Z,4.14
2022-12-04T18:11:23.552Z,4.23
2022-12-04T18:13:59.418Z,4.35
2022-12-04T18:16:27.873Z,4.17
2022-12-04T18:18:55.924Z,4.43
2022-12-04T18:21:23.124Z,4.18
2022-12-04T18:23:50.218Z,4.31
2022-12-04T18:26:22.121Z,4.41
2022-12-04T18:28:49.872Z,4.61
2022-12-04T18:31:18.513Z,4.65
2022-12-04T18:33:45.797Z,4.65
2022-12-04T18:36:16.190Z,4.92
2022-12-04T18:38:43.009Z,4.95
2022-12-04T18:41:11.585Z,4.43
2022-12-04T18:43:40.932Z,4.77
2022-12-04T18:46:10.939Z,4.26
2022-12-04T18:48:38.532Z,4.11
2022-12-04T18:51:29.459Z,4.17
2022-12-04T18:53:59.990Z,4.48
2022-12-04T18:56:27.165Z,4.24
2022-12-04T18:59:02.139Z,4.40
2022-12-04T19:01:31.202Z,4.34
2022-12-04T19:04:00.174Z,4.49
2022-12-04T19:06:31.580Z,4.76
2022-12-04T19:09:04.869Z,4.75
2022-12-04T19:11:32.176Z,4.91
2022-12-04T19:13:59.570Z,4.72
2022-12-04T19:16:26.574Z,4.15
2022-12-04T19:18:53.249Z,4.58
2022-12-04T19:21:19.971Z,4.42
2022-12-04T19:23:55.116Z,4.10
2022-12-04T19:26:21.664Z,4.13
2022-12-04T19:28:48.234Z,4.66
2022-12-04T19:31:20.301Z,4.34
2022-12-04T19:33:47.526Z,4.53
2022-12-04T19:36:14.647Z,4.24
2022-12-04T19:38:41.872Z,4.27
2022-12-04T19:41:13.850Z,4.19
2022-12-04T19:43:43.463Z,4.34
2022-12-04T19:46:12.866Z,3.89
2022-12-04T19:48:40.024Z,4.51
2022-12-04T19:51:12.358Z,4.60
2022-12-04T19:53:41.128Z,4.46
2022-12-04T19:56:11.633Z,4.64
2022-12-04T19:58:38.551Z,4.15
2022-12-04T20:01:06.861Z,4.24
2022-12-04T20:03:34.472Z,4.51
2022-12-04T20:06:05.689Z,4.51
2022-12-04T20:08:32.644Z,4.73
2022-12-04T20:11:07.415Z,4.21
2022-12-04T20:13:36.802Z,3.90
2022-12-04T20:16:05.085Z,4.30
2022-12-04T20:18:32.056Z,4.60
2022-12-04T20:20:59.920Z,4.32
2022-12-04T20:23:27.887Z,4.33
2022-12-04T20:25:54.907Z,4.39
2022-12-04T20:28:22.510Z,4.16
2022-12-04T20:30:49.979Z,4.10
2022-12-04T20:33:16.718Z,4.11
2022-12-04T20:35:43.284Z,4.10
2022-12-04T20:38:09.821Z,3.91
2022-12-04T20:40:36.579Z,3.76
2022-12-04T20:43:03.174Z,4.26
2022-12-04T20:45:30.737Z,4.66
2022-12-04T20:47:57.319Z,4.48
2022-12-04T20:50:24.333Z,4.40
2022-12-04T20:52:51.026Z,4.53
2022-12-04T20:55:17.725Z,4.17
2022-12-04T20:57:44.269Z,4.24
2022-12-04T21:00:11.502Z,4.16
2022-12-04T21:02:38.121Z,4.22
2022-12-04T21:05:05.012Z,4.34
2022-12-04T21:07:31.554Z,4.34
2022-12-04T21:09:59.194Z,3.74
2022-12-04T21:12:44.814Z,3.67
2022-12-04T21:15:29.745Z,4.07
2022-12-04T21:17:56.237Z,3.67
2022-12-04T21:20:22.825Z,3.75
2022-12-04T21:22:49.383Z,4.10
2022-12-04T21:25:15.947Z,4.14
2022-12-04T21:27:42.524Z,4.16
2022-12-04T21:30:09.756Z,4.54
2022-12-04T21:32:36.490Z,4.11
2022-12-04T21:35:03.975Z,3.82
2022-12-04T21:37:30.501Z,3.75
2022-12-04T21:39:58.182Z,4.04
2022-12-04T21:42:33.119Z,4.13
2022-12-04T21:45:01.184Z,3.93
2022-12-04T21:47:28.750Z,4.02
2022-12-04T21:49:55.751Z,3.83
2022-12-04T21:52:22.741Z,3.97
2022-12-04T21:54:53.352Z,4.07
2022-12-04T21:57:21.053Z,4.10
2022-12-04T21:59:47.705Z,3.98
2022-12-04T22:02:15.330Z,4.17
2022-12-04T22:04:42.852Z,4.40
2022-12-04T22:07:09.948Z,4.26
2022-12-04T22:09:37.559Z,3.98
2022-12-04T22:12:26.292Z,4.02
2022-12-04T22:14:51.077Z,3.81
2022-12-04T22:17:17.813Z,3.95
2022-12-04T22:19:44.282Z,3.95
2022-12-04T22:22:10.825Z,4.16
2022-12-04T22:24:37.512Z,4.25
2022-12-04T22:27:04.031Z,4.08
2022-12-04T22:32:17.332Z,4.00
2022-12-04T22:34:43.811Z,4.24
2022-12-04T22:37:10.346Z,4.17
2022-12-04T22:39:36.872Z,4.43
2022-12-04T22:42:04.040Z,4.29
2022-12-04T22:44:30.539Z,4.59
2022-12-04T22:46:57.351Z,4.82
2022-12-04T22:49:23.987Z,4.85
2022-12-04T22:51:50.529Z,4.61
2022-12-04T22:54:17.127Z,4.71
2022-12-04T22:56:44.221Z,4.55
2022-12-04T22:59:10.860Z,4.39
2022-12-04T23:01:37.460Z,4.59
2022-12-04T23:04:04.764Z,4.47
2022-12-04T23:06:33.204Z,4.57
2022-12-04T23:09:02.643Z,4.57
2022-12-04T23:11:29.397Z,4.66
2022-12-04T23:14:06.432Z,4.50
2022-12-04T23:16:35.430Z,4.53
2022-12-04T23:19:02.461Z,4.50
2022-12-04T23:21:29.541Z,4.48
2022-12-04T23:23:56.904Z,4.37
2022-12-04T23:26:27.241Z,4.38
2022-12-04T23:28:55.412Z,4.37
2022-12-04T23:31:22.034Z,4.43
2022-12-04T23:33:49.254Z,4.40
2022-12-04T23:36:16.516Z,4.35
2022-12-04T23:38:44.377Z,4.59
2022-12-04T23:41:16.755Z,4.64
2022-12-04T23:43:44.311Z,4.65
2022-12-04T23:46:13.584Z,4.54
2022-12-04T23:48:40.947Z,4.42
2022-12-04T23:51:08.972Z,4.42
2022-12-04T23:53:36.374Z,4.55
2022-12-04T23:56:15.302Z,4.52
2022-12-04T23:58:43.879Z,4.87
